Time;durP1;ratioP1;P1;durP2;ratioP2;P2;SDS_P1;SDS_P2;PMS_P1;PMS_P2;Temp;Humidity;BMP_temperature;BMP_pressure;BME280_temperature;BME280_humidity;BME280_pressure;Samples;Min_cycle;Max_cycle;Signal;HPM_P1;HPM_P2
2023/09/11 00:01:32;;;;;;;5.68;4.68;;;22.60;83.10;;;;;;7401644;19;20319;-73
2023/09/11 00:03:59;;;;;;;8.63;4.70;;;22.70;84.10;;;;;;7399700;19;19918;-74
2023/09/11 00:06:25;;;;;;;;;;;22.70;85.80;;;;;;7407423;19;20289;-73
2023/09/11 00:08:52;;;;;;;10.85;6.95;;;22.70;86.60;;;;;;7405538;19;20010;-73
2023/09/11 00:11:18;;;;;;;6.85;4.80;;;22.80;88.10;;;;;;7405948;19;20360;-73
2023/09/11 00:13:43;;;;;;;6.72;5.20;;;22.80;89.70;;;;;;7408225;19;19922;-74
2023/09/11 00:16:09;;;;;;;10.65;5.60;;;22.70;91.00;;;;;;7404645;19;19974;-73
2023/09/11 00:18:37;;;;;;;7.55;5.93;;;22.60;92.80;;;;;;7406227;19;19926;-73
2023/09/11 00:21:03;;;;;;;7.00;5.47;;;22.60;93.10;;;;;;7403326;19;19919;-73
2023/09/11 00:23:29;;;;;;;7.70;5.70;;;22.60;93.10;;;;;;7408906;19;19951;-73
2023/09/11 00:25:55;;;;;;;7.05;5.78;;;22.60;94.10;;;;;;7407604;19;19929;-73
2023/09/11 00:28:21;;;;;;;7.35;6.63;;;22.60;94.80;;;;;;7372792;19;19919;-72
2023/09/11 00:30:47;;;;;;;10.05;6.63;;;22.60;95.10;;;;;;7405814;19;19915;-73
2023/09/11 00:33:12;;;;;;;8.32;6.95;;;22.70;95.40;;;;;;7383862;19;19954;-72
2023/09/11 00:35:42;;;;;;;12.15;6.70;;;22.60;95.80;;;;;;7404597;19;20481;-72
2023/09/11 00:38:08;;;;;;;10.02;5.80;;;22.70;96.20;;;;;;7405320;19;19921;-72
2023/09/11 00:40:33;;;;;;;7.65;5.90;;;22.60;96.80;;;;;;7401790;19;20435;-72
2023/09/11 00:42:59;;;;;;;8.05;6.63;;;22.60;97.40;;;;;;7404439;19;19942;-72
2023/09/11 00:45:25;;;;;;;9.55;6.82;;;22.60;97.50;;;;;;7404060;19;20691;-72
2023/09/11 00:47:51;;;;;;;8.85;6.68;;;22.60;97.70;;;;;;7403547;19;19931;-73
2023/09/11 00:50:17;;;;;;;8.35;6.20;;;22.60;97.90;;;;;;7402967;19;20259;-73
2023/09/11 00:52:44;;;;;;;8.40;6.97;;;22.70;98.10;;;;;;7404918;19;19929;-73
2023/09/11 00:55:10;;;;;;;8.13;6.07;;;22.70;98.20;;;;;;7404370;19;19933;-73
2023/09/11 00:57:36;;;;;;;9.00;7.70;;;22.70;98.30;;;;;;7405741;19;19953;-74
2023/09/11 01:00:04;;;;;;;10.38;6.72;;;22.70;98.40;;;;;;7403900;19;19919;-74
2023/09/11 01:02:30;;;;;;;8.27;6.88;;;22.70;98.50;;;;;;7406624;19;19952;-72
2023/09/11 01:04:58;;;;;;;7.47;6.43;;;22.70;98.50;;;;;;7407795;19;19930;-73
2023/09/11 01:07:24;;;;;;;9.15;6.30;;;22.60;98.70;;;;;;7404131;19;19935;-73
2023/09/11 01:09:50;;;;;;;8.00;6.40;;;22.60;98.80;;;;;;7404188;19;19914;-72
2023/09/11 01:12:15;;;;;;;9.38;6.10;;;22.60;98.90;;;;;;7403667;19;19926;-73
2023/09/11 01:14:41;;;;;;;8.80;5.68;;;22.60;99.00;;;;;;7405939;19;19934;-72
2023/09/11 01:17:28;;;;;;;9.02;6.13;;;22.60;98.80;;;;;;7402962;19;19919;-73
2023/09/11 01:20:31;;;;;;;10.90;6.95;;;22.60;98.70;;;;;;7405478;19;19915;-73
2023/09/11 01:23:30;;;;;;;8.60;6.45;;;22.50;98.70;;;;;;7382794;19;19927;-73
2023/09/11 01:26:16;;;;;;;8.05;6.38;;;22.40;99.10;;;;;;7406616;19;19978;-74
2023/09/11 01:28:54;;;;;;;9.48;7.30;;;22.40;99.30;;;;;;7405128;19;19982;-73
2023/09/11 01:31:20;;;;;;;7.65;6.47;;;22.40;99.50;;;;;;7404543;19;19907;-73
2023/09/11 01:33:53;;;;;;;8.25;6.85;;;22.40;99.70;;;;;;7403262;19;19915;-73
2023/09/11 01:36:19;;;;;;;7.82;6.40;;;22.40;99.80;;;;;;7402180;19;19918;-73
2023/09/11 01:38:45;;;;;;;7.93;6.80;;;22.40;99.90;;;;;;7405635;19;20010;-73
2023/09/11 01:41:15;;;;;;;9.45;6.93;;;22.30;99.90;;;;;;7404618;19;19974;-73
2023/09/11 01:43:44;;;;;;;8.27;6.93;;;22.30;99.90;;;;;;7404747;19;19942;-73
2023/09/11 01:46:14;;;;;;;7.38;6.05;;;22.30;99.90;;;;;;7401947;19;19938;-73
2023/09/11 01:48:42;;;;;;;7.95;5.90;;;22.30;99.90;;;;;;7406840;19;19919;-74
2023/09/11 01:51:08;;;;;;;10.90;7.05;;;22.30;99.50;;;;;;7404528;19;19949;-74
2023/09/11 01:53:34;;;;;;;;;;;22.30;99.50;;;;;;7406524;19;19928;-74
2023/09/11 01:56:00;;;;;;;7.63;5.97;;;22.30;99.00;;;;;;7405491;19;20002;-73
2023/09/11 01:58:26;;;;;;;7.47;6.07;;;22.30;98.70;;;;;;7403108;19;19918;-74
2023/09/11 02:00:52;;;;;;;6.82;5.43;;;22.30;98.30;;;;;;7402785;19;19919;-74
2023/09/11 02:03:18;;;;;;;7.22;5.60;;;22.30;98.10;;;;;;7403660;19;19982;-74
2023/09/11 02:05:43;;;;;;;8.07;6.35;;;22.30;97.80;;;;;;7402977;19;19918;-74
2023/09/11 02:08:09;;;;;;;8.40;5.30;;;22.30;97.70;;;;;;7401846;19;19946;-74
2023/09/11 02:10:35;;;;;;;7.47;5.40;;;22.30;97.60;;;;;;7399733;19;19922;-74
2023/09/11 02:13:01;;;;;;;7.97;5.78;;;22.30;97.80;;;;;;7367925;19;19926;-73
2023/09/11 02:15:26;;;;;;;8.52;5.50;;;22.30;97.40;;;;;;7401377;19;19915;-73
2023/09/11 02:17:52;;;;;;;7.10;5.28;;;22.40;97.20;;;;;;7402998;19;19918;-73
2023/09/11 02:20:18;;;;;;;9.40;4.93;;;22.30;96.90;;;;;;7402856;19;20833;-73
2023/09/11 02:22:44;;;;;;;6.28;5.60;;;22.30;96.90;;;;;;7401592;19;19999;-76
2023/09/11 02:25:09;;;;;;;8.65;5.05;;;22.30;96.50;;;;;;7399582;19;19911;-73
2023/09/11 02:27:35;;;;;;;6.25;4.80;;;22.30;96.10;;;;;;7401172;19;19922;-74
2023/09/11 02:30:01;;;;;;;7.05;5.18;;;22.30;96.00;;;;;;7402165;19;19928;-72
2023/09/11 02:32:27;;;;;;;6.65;5.07;;;22.30;95.30;;;;;;7399145;19;19947;-73
2023/09/11 02:34:53;;;;;;;7.88;5.15;;;22.30;93.80;;;;;;7399280;19;19917;-73
2023/09/11 02:37:18;;;;;;;7.25;4.35;;;22.30;93.80;;;;;;7399046;19;20255;-72
2023/09/11 02:39:44;;;;;;;5.03;4.25;;;22.30;93.20;;;;;;7402094;19;19928;-73
2023/09/11 02:42:10;;;;;;;7.13;4.68;;;22.20;92.60;;;;;;7398764;19;19927;-73
2023/09/11 02:44:36;;;;;;;6.45;5.00;;;22.30;92.10;;;;;;7402596;19;19947;-74
2023/09/11 02:47:02;;;;;;;6.90;5.18;;;22.20;91.70;;;;;;7400796;19;19939;-73
2023/09/11 02:49:27;;;;;;;7.20;5.22;;;22.30;91.20;;;;;;7369833;19;19990;-73
2023/09/11 02:51:53;;;;;;;6.82;4.88;;;22.20;91.30;;;;;;7395016;19;20267;-73
2023/09/11 02:54:19;;;;;;;8.80;5.32;;;22.30;91.20;;;;;;7399810;19;19918;-74
2023/09/11 02:56:45;;;;;;;9.27;5.20;;;22.20;91.20;;;;;;7401871;19;19921;-74
2023/09/11 02:59:11;;;;;;;7.35;5.65;;;22.30;91.50;;;;;;7399371;19;19922;-74
2023/09/11 03:01:36;;;;;;;8.10;5.40;;;22.20;91.50;;;;;;7400446;19;19963;-73
2023/09/11 03:04:02;;;;;;;8.13;5.97;;;22.20;91.60;;;;;;7402474;19;19911;-74
2023/09/11 03:06:29;;;;;;;8.02;5.55;;;22.20;91.60;;;;;;7400146;19;19930;-73
2023/09/11 03:08:56;;;;;;;7.20;5.38;;;22.20;91.60;;;;;;7401719;19;19915;-74
2023/09/11 03:11:22;;;;;;;7.68;5.40;;;22.20;91.40;;;;;;7400357;19;19938;-74
2023/09/11 03:13:49;;;;;;;6.55;5.07;;;22.20;91.30;;;;;;7401570;19;19921;-73
2023/09/11 03:16:15;;;;;;;7.75;5.28;;;22.10;91.30;;;;;;7398261;19;19923;-74
2023/09/11 03:18:42;;;;;;;8.10;5.35;;;22.10;91.60;;;;;;7399199;19;19922;-74
2023/09/11 03:21:08;;;;;;;6.95;4.93;;;22.10;91.40;;;;;;7399180;19;19942;-74
2023/09/11 03:23:34;;;;;;;;;;;22.10;91.30;;;;;;7403895;19;19925;-74
2023/09/11 03:26:01;;;;;;;6.40;4.65;;;22.00;91.30;;;;;;7400997;19;19987;-74
2023/09/11 03:28:27;;;;;;;;;;;22.00;91.30;;;;;;7379194;19;20459;-73
2023/09/11 03:30:54;;;;;;;8.07;5.82;;;22.10;91.50;;;;;;7399356;19;19914;-74
2023/09/11 03:33:19;;;;;;;9.20;4.65;;;22.00;91.30;;;;;;7396559;19;20451;-74
2023/09/11 03:35:49;;;;;;;6.60;4.97;;;21.90;91.20;;;;;;7399058;19;19922;-74
2023/09/11 03:38:15;;;;;;;6.28;5.15;;;21.90;91.20;;;;;;7396772;19;19919;-74
2023/09/11 03:40:44;;;;;;;7.05;4.65;;;22.00;91.20;;;;;;7401021;19;20009;-73
2023/09/11 03:43:10;;;;;;;6.90;4.38;;;22.00;91.00;;;;;;7404355;19;19914;-73
2023/09/11 03:45:36;;;;;;;8.68;5.30;;;22.00;91.10;;;;;;7406803;19;19986;-73
2023/09/11 03:48:01;;;;;;;6.30;4.53;;;22.00;91.00;;;;;;7405663;19;19946;-74
2023/09/11 03:50:27;;;;;;;8.45;4.63;;;22.00;91.30;;;;;;7406323;19;19915;-74
2023/09/11 03:52:54;;;;;;;8.35;5.25;;;22.00;91.50;;;;;;7401098;19;19931;-73
2023/09/11 03:55:20;;;;;;;5.75;3.88;;;21.90;91.80;;;;;;7403550;19;20321;-74
2023/09/11 03:57:46;;;;;;;6.22;5.00;;;21.90;92.10;;;;;;7407753;19;19939;-73
2023/09/11 04:00:12;;;;;;;5.47;4.60;;;21.90;92.80;;;;;;7404940;19;19919;-73
2023/09/11 04:02:38;;;;;;;6.80;4.18;;;21.90;92.80;;;;;;7404409;19;20301;-73
2023/09/11 04:05:05;;;;;;;6.50;4.75;;;21.90;93.40;;;;;;7404598;19;19946;-73
2023/09/11 04:07:32;;;;;;;6.10;4.85;;;21.90;93.70;;;;;;7404114;19;19910;-73
2023/09/11 04:09:58;;;;;;;;;;;21.90;94.00;;;;;;7409339;19;20371;-73
2023/09/11 04:12:23;;;;;;;8.80;5.07;;;21.90;93.90;;;;;;7404690;19;19918;-74
2023/09/11 04:14:49;;;;;;;7.55;4.53;;;21.90;94.60;;;;;;7405426;19;19943;-74
2023/09/11 04:17:15;;;;;;;7.05;4.88;;;21.90;94.80;;;;;;7404785;19;20343;-74
2023/09/11 04:19:41;;;;;;;6.80;4.80;;;21.90;94.80;;;;;;7406759;19;19918;-75
2023/09/11 04:22:07;;;;;;;6.53;4.95;;;21.90;94.80;;;;;;7408115;19;19941;-73
2023/09/11 04:24:33;;;;;;;8.10;5.38;;;21.90;94.80;;;;;;7405265;19;19923;-73
2023/09/11 04:27:00;;;;;;;6.63;4.15;;;22.00;95.00;;;;;;7405666;19;20303;-73
2023/09/11 04:29:31;;;;;;;6.35;4.70;;;22.00;95.20;;;;;;7405735;19;19942;-73
2023/09/11 04:31:58;;;;;;;6.85;4.70;;;22.00;94.80;;;;;;7407465;19;20321;-73
2023/09/11 04:34:24;;;;;;;5.00;4.47;;;22.00;94.60;;;;;;7403942;19;19998;-75
2023/09/11 04:36:51;;;;;;;7.18;4.28;;;22.00;94.50;;;;;;7406307;19;19918;-73
2023/09/11 04:39:17;;;;;;;6.25;3.95;;;22.00;94.40;;;;;;7403092;19;20314;-73
2023/09/11 04:41:43;;;;;;;7.53;5.03;;;22.00;94.40;;;;;;7404055;19;19940;-74
2023/09/11 04:44:09;;;;;;;6.43;4.93;;;22.00;94.20;;;;;;7374079;19;19915;-74
2023/09/11 04:46:34;;;;;;;8.68;4.35;;;22.00;94.10;;;;;;7407473;19;19917;-74
2023/09/11 04:49:00;;;;;;;9.65;4.90;;;22.00;94.20;;;;;;7405703;19;19938;-74
2023/09/11 04:51:26;;;;;;;7.03;4.45;;;22.10;94.10;;;;;;7404149;19;19910;-73
2023/09/11 04:53:52;;;;;;;6.07;4.43;;;22.10;93.90;;;;;;7406606;19;19957;-74
2023/09/11 04:56:18;;;;;;;7.60;4.05;;;22.10;93.80;;;;;;7402831;19;19919;-74
2023/09/11 04:58:43;;;;;;;6.78;4.35;;;22.20;93.80;;;;;;7404365;19;19910;-73
2023/09/11 05:01:09;;;;;;;6.53;4.57;;;22.20;93.80;;;;;;7404514;19;19914;-73
2023/09/11 05:03:35;;;;;;;8.73;3.92;;;22.20;93.90;;;;;;7405708;19;19951;-74
2023/09/11 05:06:01;;;;;;;6.63;4.75;;;22.20;94.30;;;;;;7403261;19;19925;-76
2023/09/11 05:08:26;;;;;;;7.05;5.22;;;21.90;95.70;;;;;;7405227;19;19933;-74
2023/09/11 05:10:52;;;;;;;6.57;4.35;;;21.90;96.20;;;;;;7406050;19;19990;-75
2023/09/11 05:13:18;;;;;;;7.38;5.22;;;21.80;96.60;;;;;;7405815;19;19941;-74
2023/09/11 05:15:44;;;;;;;7.53;4.63;;;21.80;97.30;;;;;;7406484;19;20239;-75
2023/09/11 05:18:11;;;;;;;8.38;6.05;;;21.80;97.40;;;;;;7404897;19;19919;-75
2023/09/11 05:20:37;;;;;;;8.40;5.55;;;21.80;97.80;;;;;;7404053;19;19926;-74
2023/09/11 05:23:05;;;;;;;7.20;5.63;;;21.80;98.10;;;;;;7405442;19;20273;-74
2023/09/11 05:25:31;;;;;;;7.10;5.55;;;21.70;98.10;;;;;;7405625;19;19923;-74
2023/09/11 05:27:56;;;;;;;6.72;5.93;;;21.70;98.40;;;;;;7405061;19;19938;-74
2023/09/11 05:30:22;;;;;;;8.95;5.75;;;21.70;98.50;;;;;;7404683;19;21010;-74
2023/09/11 05:32:51;;;;;;;7.60;5.45;;;21.70;98.60;;;;;;7405014;19;19956;-74
2023/09/11 05:35:18;;;;;;;5.82;4.68;;;21.60;98.70;;;;;;7401915;19;19919;-73
2023/09/11 05:37:44;;;;;;;9.63;5.78;;;21.60;99.10;;;;;;7374485;19;19922;-75
2023/09/11 05:40:10;;;;;;;7.57;5.15;;;21.70;99.50;;;;;;7403643;19;19921;-74
2023/09/11 05:42:35;;;;;;;8.55;5.50;;;21.70;99.70;;;;;;7402478;19;19942;-74
2023/09/11 05:45:01;;;;;;;8.13;6.10;;;21.70;99.80;;;;;;7402456;19;19910;-75
2023/09/11 05:47:27;;;;;;;8.13;5.63;;;21.80;99.90;;;;;;7401334;19;19915;-74
2023/09/11 05:49:53;;;;;;;7.63;5.72;;;21.80;99.90;;;;;;7402585;19;19918;-74
2023/09/11 05:52:19;;;;;;;6.95;4.97;;;21.80;99.90;;;;;;7402458;19;20243;-73
2023/09/11 05:54:45;;;;;;;7.38;5.90;;;21.90;99.90;;;;;;7406069;19;19915;-74
2023/09/11 05:57:11;;;;;;;10.20;5.80;;;21.90;99.90;;;;;;7403119;19;20361;-74
2023/09/11 05:59:37;;;;;;;10.00;6.22;;;22.00;99.90;;;;;;7402690;19;19934;-73
2023/09/11 06:02:03;;;;;;;8.70;5.85;;;22.00;99.80;;;;;;7400019;19;20316;-75
2023/09/11 06:04:30;;;;;;;9.13;5.93;;;22.10;99.70;;;;;;7404764;19;20330;-74
2023/09/11 06:06:57;;;;;;;8.52;6.28;;;22.10;99.50;;;;;;7403664;19;19923;-75
2023/09/11 06:09:23;;;;;;;7.68;5.90;;;22.20;99.30;;;;;;7404552;19;20370;-74
2023/09/11 06:11:49;;;;;;;6.88;5.97;;;22.20;99.20;;;;;;7405173;19;19966;-75
2023/09/11 06:14:15;;;;;;;;;;;22.20;99.10;;;;;;7402489;19;20258;-74
2023/09/11 06:16:41;;;;;;;10.80;6.07;;;22.20;99.10;;;;;;7403214;19;19959;-74
2023/09/11 06:19:07;;;;;;;8.07;5.50;;;22.20;99.10;;;;;;7402930;19;19932;-74
2023/09/11 06:21:33;;;;;;;7.65;5.35;;;22.20;99.00;;;;;;7402273;19;19918;-74
2023/09/11 06:23:59;;;;;;;8.88;5.70;;;22.20;99.10;;;;;;7404199;19;19976;-74
2023/09/11 06:26:24;;;;;;;8.48;5.15;;;22.20;99.10;;;;;;7400426;19;19918;-74
2023/09/11 06:28:50;;;;;;;7.05;5.80;;;22.20;99.00;;;;;;7399732;19;20475;-75
2023/09/11 06:31:20;;;;;;;8.18;5.85;;;22.30;99.20;;;;;;7402097;19;19952;-75
2023/09/11 06:33:47;;;;;;;6.40;5.10;;;22.40;99.10;;;;;;7402990;19;19926;-76
2023/09/11 06:36:13;;;;;;;7.22;5.50;;;22.40;99.00;;;;;;7399528;19;19929;-75
2023/09/11 06:38:39;;;;;;;;;;;22.40;98.70;;;;;;7403988;19;19919;-74
2023/09/11 06:41:05;;;;;;;7.57;5.40;;;22.40;98.70;;;;;;7401767;19;19915;-76
2023/09/11 06:43:31;;;;;;;7.00;5.28;;;22.40;98.70;;;;;;7404882;19;19974;-74
2023/09/11 06:45:57;;;;;;;8.05;6.40;;;22.50;98.50;;;;;;7401245;19;19925;-74
2023/09/11 06:48:23;;;;;;;8.00;5.65;;;22.50;98.40;;;;;;7402950;19;20010;-74
2023/09/11 06:50:52;;;;;;;10.27;6.43;;;22.60;98.30;;;;;;7401631;19;19918;-74
2023/09/11 06:53:18;;;;;;;8.77;6.10;;;22.60;97.90;;;;;;7401969;19;19915;-74
2023/09/11 06:55:47;;;;;;;7.55;6.13;;;22.70;97.80;;;;;;7402940;19;20383;-74
2023/09/11 06:58:13;;;;;;;7.85;5.57;;;22.70;97.60;;;;;;7401711;19;19918;-74
2023/09/11 07:00:40;;;;;;;7.53;6.20;;;22.70;97.50;;;;;;7402287;19;19917;-74
2023/09/11 07:03:06;;;;;;;9.07;7.32;;;22.80;97.50;;;;;;7399739;19;20304;-74
2023/09/11 07:05:32;;;;;;;8.35;5.65;;;22.90;96.90;;;;;;7380788;19;19919;-74
2023/09/11 07:07:58;;;;;;;8.68;5.93;;;23.10;96.90;;;;;;7402165;19;19943;-74
2023/09/11 07:10:25;;;;;;;10.40;6.78;;;23.10;96.40;;;;;;7369099;19;19922;-74
2023/09/11 07:12:50;;;;;;;9.05;6.20;;;23.20;96.20;;;;;;7399160;19;19925;-73
2023/09/11 07:15:19;;;;;;;7.93;5.95;;;23.20;96.30;;;;;;7398336;19;19986;-74
2023/09/11 07:17:48;;;;;;;7.38;6.03;;;23.40;96.40;;;;;;7399779;19;19915;-74
2023/09/11 07:20:14;;;;;;;6.43;4.68;;;23.40;96.10;;;;;;7401203;19;19922;-75
2023/09/11 07:22:40;;;;;;;7.75;5.40;;;23.40;96.60;;;;;;7401862;19;19918;-74
2023/09/11 07:25:11;;;;;;;7.55;5.68;;;23.40;96.40;;;;;;7403139;19;19933;-74
2023/09/11 07:27:37;;;;;;;8.02;5.63;;;23.50;96.00;;;;;;7400581;19;20326;-75
2023/09/11 07:30:09;;;;;;;;;;;23.50;95.70;;;;;;7400871;19;19921;-75
2023/09/11 07:32:35;;;;;;;7.40;5.65;;;23.40;96.10;;;;;;7400700;19;19922;-74
2023/09/11 07:35:02;;;;;;;8.63;5.97;;;23.50;95.90;;;;;;7399662;19;19970;-74
2023/09/11 07:37:28;;;;;;;8.27;6.00;;;23.60;95.70;;;;;;7379268;19;20226;-74
2023/09/11 07:39:54;;;;;;;11.00;5.40;;;23.60;95.50;;;;;;7395959;19;19935;-74
2023/09/11 07:42:19;;;;;;;7.20;5.78;;;23.60;95.20;;;;;;7396903;19;19998;-73
2023/09/11 07:44:45;;;;;;;6.82;5.70;;;23.50;95.60;;;;;;7399315;19;19923;-75
2023/09/11 07:47:12;;;;;;;7.55;5.68;;;23.70;95.00;;;;;;7400098;19;19982;-75
2023/09/11 07:49:38;;;;;;;6.75;5.70;;;23.70;94.70;;;;;;7400267;19;19914;-73
2023/09/11 07:52:04;;;;;;;7.35;5.78;;;23.90;94.30;;;;;;7398053;19;19926;-74
2023/09/11 07:54:30;;;;;;;6.53;5.45;;;23.90;94.00;;;;;;7377936;19;19936;-75
2023/09/11 07:56:56;;;;;;;7.80;4.90;;;24.00;93.60;;;;;;7398829;19;19922;-73
2023/09/11 07:59:22;;;;;;;7.05;5.10;;;24.00;93.30;;;;;;7347164;19;19938;-75
2023/09/11 08:01:48;;;;;;;7.47;5.05;;;24.00;93.50;;;;;;7394602;19;19926;-74
2023/09/11 08:04:14;;;;;;;8.00;5.70;;;24.10;93.10;;;;;;7395672;19;20376;-75
2023/09/11 08:06:40;;;;;;;8.77;5.72;;;24.20;92.80;;;;;;7399368;19;19994;-74
2023/09/11 08:09:05;;;;;;;6.72;4.85;;;24.20;92.60;;;;;;7396705;19;19934;-74
2023/09/11 08:11:34;;;;;;;7.78;5.47;;;24.10;92.40;;;;;;7401125;19;19922;-74
2023/09/11 08:14:00;;;;;;;8.10;4.97;;;24.20;92.60;;;;;;7395626;19;20670;-74
2023/09/11 08:16:26;;;;;;;7.57;5.28;;;24.40;92.10;;;;;;7398708;19;19939;-74
2023/09/11 08:18:52;;;;;;;7.53;5.20;;;24.50;91.80;;;;;;7398628;19;19925;-75
2023/09/11 08:21:19;;;;;;;8.20;4.97;;;24.40;91.10;;;;;;7397637;19;19922;-73
2023/09/11 08:23:46;;;;;;;7.13;5.00;;;24.50;90.80;;;;;;7399055;19;20505;-74
2023/09/11 08:26:12;;;;;;;7.65;4.93;;;24.30;91.40;;;;;;7401716;19;19915;-74
2023/09/11 08:28:38;;;;;;;6.72;4.85;;;24.30;90.80;;;;;;7402218;19;19990;-74
2023/09/11 08:31:03;;;;;;;6.15;3.80;;;24.50;90.30;;;;;;7403592;19;20684;-73
2023/09/11 08:33:30;;;;;;;6.22;4.55;;;24.80;89.20;;;;;;7403667;19;19917;-74
2023/09/11 08:35:56;;;;;;;6.25;4.78;;;24.80;87.90;;;;;;7402061;19;19919;-74
2023/09/11 08:38:22;;;;;;;7.68;5.63;;;24.90;86.60;;;;;;7400169;19;19942;-75
2023/09/11 08:40:47;;;;;;;6.80;5.43;;;25.10;86.40;;;;;;7404665;19;19914;-74
2023/09/11 08:43:13;;;;;;;8.93;4.70;;;24.90;84.90;;;;;;7400795;19;19922;-74
2023/09/11 08:45:39;;;;;;;6.53;5.28;;;25.00;84.50;;;;;;7403816;19;19944;-73
2023/09/11 08:48:14;;;;;;;7.38;5.05;;;24.80;85.70;;;;;;7402474;19;19946;-74
2023/09/11 08:50:47;;;;;;;7.28;5.13;;;24.90;85.20;;;;;;7405938;19;19919;-74
2023/09/11 08:53:15;;;;;;;5.03;3.95;;;24.90;84.50;;;;;;7404353;19;19918;-73
2023/09/11 08:55:42;;;;;;;6.25;4.65;;;24.70;84.50;;;;;;7402956;19;19932;-74
2023/09/11 08:58:13;;;;;;;6.72;4.80;;;24.80;85.00;;;;;;7404016;19;19933;-74
2023/09/11 09:00:38;;;;;;;6.57;4.88;;;24.80;84.60;;;;;;7392316;19;19923;-75
2023/09/11 09:03:05;;;;;;;7.55;5.05;;;24.70;83.40;;;;;;7386577;19;19907;-76
2023/09/11 09:05:32;;;;;;;6.88;4.55;;;25.00;83.20;;;;;;7405258;19;19919;-75
2023/09/11 09:08:03;;;;;;;7.22;4.50;;;25.40;81.70;;;;;;7396452;19;20286;-76
2023/09/11 09:10:28;;;;;;;9.90;4.90;;;25.80;79.20;;;;;;7389622;19;19970;-76
2023/09/11 09:12:56;;;;;;;9.80;5.53;;;25.70;79.40;;;;;;7395403;19;19945;-76
2023/09/11 09:15:24;;;;;;;6.65;5.28;;;26.10;79.80;;;;;;7397962;19;25345;-74
2023/09/11 09:17:50;;;;;;;6.85;4.82;;;26.30;77.80;;;;;;7400893;19;19926;-74
2023/09/11 09:20:17;;;;;;;5.93;5.25;;;26.80;76.00;;;;;;7397600;19;20394;-75
2023/09/11 09:23:00;;;;;;;8.43;5.45;;;27.30;73.60;;;;;;7402958;19;19934;-75
2023/09/11 09:25:27;;;;;;;7.20;4.80;;;27.10;71.90;;;;;;7402966;19;19915;-74
2023/09/11 09:27:54;;;;;;;7.38;4.78;;;26.80;72.70;;;;;;7381275;19;19922;-76
2023/09/11 09:30:28;;;;;;;6.53;5.18;;;26.90;72.50;;;;;;7372159;19;19935;-75
2023/09/11 09:32:55;;;;;;;6.65;4.97;;;26.80;69.00;;;;;;7405867;19;19922;-75
2023/09/11 09:35:23;;;;;;;9.10;4.97;;;26.60;71.60;;;;;;7399487;19;19936;-74
2023/09/11 09:37:50;;;;;;;6.93;4.97;;;26.50;71.50;;;;;;7401447;19;19914;-75
2023/09/11 09:40:37;;;;;;;7.55;5.72;;;26.40;71.40;;;;;;7402442;19;20615;-75
2023/09/11 09:43:14;;;;;;;8.70;7.50;;;26.70;72.30;;;;;;7404325;19;19920;-75
2023/09/11 09:45:42;;;;;;;10.30;7.85;;;27.00;71.90;;;;;;7404486;19;20270;-76
2023/09/11 09:48:19;;;;;;;12.75;10.07;;;27.10;71.60;;;;;;7381639;19;20346;-76
2023/09/11 09:50:59;;;;;;;11.02;7.50;;;27.20;72.30;;;;;;7373138;19;19907;-76
2023/09/11 09:53:33;;;;;;;10.40;8.60;;;27.30;71.50;;;;;;7400847;19;19952;-76
2023/09/11 09:56:04;;;;;;;11.30;7.80;;;27.70;70.80;;;;;;7402101;19;19938;-76
2023/09/11 09:58:35;;;;;;;10.02;8.68;;;28.30;69.00;;;;;;7402717;19;19946;-75
2023/09/11 10:01:02;;;;;;;11.10;8.02;;;28.20;68.20;;;;;;7402651;19;19994;-76
2023/09/11 10:03:36;;;;;;;11.70;7.93;;;28.00;69.30;;;;;;7402186;19;20337;-76
2023/09/11 10:06:09;;;;;;;8.65;7.43;;;28.00;69.60;;;;;;7404687;19;19935;-76
2023/09/11 10:08:36;;;;;;;8.02;6.57;;;28.20;69.80;;;;;;7404608;19;19923;-75
2023/09/11 10:11:02;;;;;;;8.68;6.65;;;28.30;69.20;;;;;;7405250;19;19922;-74
2023/09/11 10:13:30;;;;;;;;;;;28.50;68.60;;;;;;7403840;19;19907;-73
2023/09/11 10:15:57;;;;;;;7.05;5.97;;;28.10;69.80;;;;;;7401254;19;19918;-76
2023/09/11 10:18:23;;;;;;;7.63;6.53;;;28.20;69.90;;;;;;7399779;19;21126;-75
2023/09/11 10:20:50;;;;;;;8.77;6.20;;;28.00;69.20;;;;;;7401391;19;19915;-75
2023/09/11 10:23:16;;;;;;;7.20;4.95;;;28.30;69.60;;;;;;7403526;19;20304;-75
2023/09/11 10:25:46;;;;;;;9.20;6.57;;;28.70;67.90;;;;;;7405219;19;19927;-75
2023/09/11 10:28:41;;;;;;;8.27;6.30;;;28.10;68.90;;;;;;7399195;19;19942;-75
2023/09/11 10:31:14;;;;;;;6.55;5.82;;;28.10;69.80;;;;;;7370640;19;19950;-75
2023/09/11 10:33:40;;;;;;;7.15;6.28;;;28.10;70.10;;;;;;7381969;19;19935;-74
2023/09/11 10:36:13;;;;;;;7.32;6.55;;;28.10;69.50;;;;;;7401204;19;19922;-76
2023/09/11 10:38:39;;;;;;;6.35;5.18;;;28.00;70.10;;;;;;7402636;19;19943;-75
2023/09/11 10:41:08;;;;;;;6.60;5.65;;;28.20;69.30;;;;;;7401375;19;20267;-75
2023/09/11 10:43:34;;;;;;;7.07;6.00;;;28.10;68.70;;;;;;7403029;19;19926;-76
2023/09/11 10:46:22;;;;;;;7.47;5.38;;;28.70;67.80;;;;;;7401723;19;19926;-74
2023/09/11 10:48:51;;;;;;;8.70;6.03;;;29.60;64.50;;;;;;7401931;19;19922;-76
2023/09/11 10:51:17;;;;;;;7.05;5.72;;;29.90;62.30;;;;;;7400989;19;19935;-75
2023/09/11 10:53:47;;;;;;;7.05;5.60;;;30.30;61.50;;;;;;7402921;19;19923;-74
2023/09/11 10:56:13;;;;;;;6.00;5.38;;;29.80;60.60;;;;;;7401462;19;19926;-75
2023/09/11 10:58:40;;;;;;;10.02;5.88;;;29.50;62.10;;;;;;7402318;19;19927;-75
2023/09/11 11:01:06;;;;;;;6.60;5.13;;;30.00;61.30;;;;;;7403494;19;19943;-74
2023/09/11 11:03:33;;;;;;;;;;;30.00;60.90;;;;;;7406541;19;19946;-74
2023/09/11 11:06:00;;;;;;;6.60;5.65;;;29.00;62.00;;;;;;7402580;19;20035;-75
2023/09/11 11:08:30;;;;;;;7.55;5.63;;;28.90;63.20;;;;;;7379601;19;19921;-74
2023/09/11 11:10:57;;;;;;;6.90;4.95;;;29.00;63.80;;;;;;7400724;19;20266;-75
2023/09/11 11:13:23;;;;;;;6.30;4.65;;;29.90;62.00;;;;;;7370056;19;20266;-75
2023/09/11 11:16:15;;;;;;;8.52;6.00;;;30.20;59.20;;;;;;7400449;19;19926;-75
2023/09/11 11:18:42;;;;;;;7.80;5.60;;;31.00;57.30;;;;;;7398714;19;19931;-75
2023/09/11 11:21:09;;;;;;;5.60;4.88;;;31.30;55.80;;;;;;7368573;19;19919;-75
2023/09/11 11:23:51;;;;;;;6.93;5.28;;;31.90;54.50;;;;;;7401639;19;19918;-74
2023/09/11 11:26:17;;;;;;;6.50;5.63;;;32.20;52.20;;;;;;7366438;19;19919;-74
2023/09/11 11:28:45;;;;;;;6.75;5.43;;;31.50;53.70;;;;;;7401041;19;19918;-75
2023/09/11 11:31:17;;;;;;;7.65;5.53;;;31.80;52.90;;;;;;7399242;19;19961;-75
2023/09/11 11:33:46;;;;;;;5.63;4.90;;;31.40;52.70;;;;;;7400301;19;19918;-75
2023/09/11 11:36:12;;;;;;;6.40;5.03;;;31.40;53.90;;;;;;7399061;19;20305;-75
2023/09/11 11:38:44;;;;;;;6.45;5.03;;;30.90;54.00;;;;;;7401435;19;19914;-74
2023/09/11 11:41:11;;;;;;;6.10;5.50;;;31.00;54.00;;;;;;7400745;19;20042;-74
2023/09/11 11:43:39;;;;;;;6.05;5.03;;;30.50;55.70;;;;;;7403197;19;20463;-74
2023/09/11 11:46:06;;;;;;;5.57;4.97;;;30.30;55.70;;;;;;7401921;19;20259;-74
2023/09/11 11:48:37;;;;;;;8.00;4.15;;;31.20;54.70;;;;;;7403732;19;20667;-75
2023/09/11 11:51:04;;;;;;;8.30;6.45;;;30.40;55.50;;;;;;7402053;19;19930;-75
2023/09/11 11:53:32;;;;;;;6.80;5.20;;;29.40;58.80;;;;;;7398553;19;19919;-76
2023/09/11 11:55:59;;;;;;;5.72;4.88;;;29.30;60.20;;;;;;7402690;19;19923;-74
2023/09/11 11:58:25;;;;;;;8.63;5.93;;;29.30;60.20;;;;;;7399293;19;19914;-76
2023/09/11 12:01:03;;;;;;;6.78;5.43;;;30.10;59.10;;;;;;7403131;19;19923;-75
2023/09/11 12:03:33;;;;;;;6.65;4.75;;;30.30;58.10;;;;;;7406760;19;19923;-74
2023/09/11 12:06:03;;;;;;;7.03;5.72;;;31.40;56.60;;;;;;7407593;19;19919;-76
2023/09/11 12:08:29;;;;;;;6.22;5.07;;;31.30;55.50;;;;;;7406890;19;20298;-75
2023/09/11 12:10:55;;;;;;;;;;;30.50;56.40;;;;;;7410374;19;19919;-75
2023/09/11 12:13:24;;;;;;;6.82;5.22;;;30.10;58.10;;;;;;7407489;19;20024;-76
2023/09/11 12:16:00;;;;;;;6.07;5.30;;;29.80;59.40;;;;;;7407532;19;19919;-75
2023/09/11 12:18:31;;;;;;;5.95;5.35;;;28.90;59.30;;;;;;7407093;19;20342;-74
2023/09/11 12:20:59;;;;;;;6.75;5.53;;;29.30;60.70;;;;;;7406309;19;19933;-75
2023/09/11 12:23:25;;;;;;;7.75;4.68;;;29.70;60.10;;;;;;7384585;19;20307;-74
2023/09/11 12:25:51;;;;;;;;;;;30.10;58.60;;;;;;7408804;19;19921;-74
2023/09/11 12:28:21;;;;;;;6.13;5.53;;;30.40;58.00;;;;;;7405265;19;19937;-75
2023/09/11 12:30:48;;;;;;;7.45;5.68;;;30.10;58.60;;;;;;7406329;19;19914;-74
2023/09/11 12:33:16;;;;;;;9.23;6.47;;;30.90;57.30;;;;;;7402679;19;19934;-76
2023/09/11 12:35:43;;;;;;;6.10;5.47;;;30.90;55.10;;;;;;7406160;19;19939;-75
2023/09/11 12:38:10;;;;;;;8.00;6.60;;;31.10;55.30;;;;;;7395911;19;19918;-74
2023/09/11 12:40:43;;;;;;;5.47;4.90;;;30.10;55.80;;;;;;7398436;19;20422;-74
2023/09/11 12:43:10;;;;;;;8.35;6.45;;;29.30;59.00;;;;;;7402167;19;19929;-73
2023/09/11 12:45:37;;;;;;;7.50;6.05;;;29.70;59.20;;;;;;7403413;19;19934;-75
2023/09/11 12:48:04;;;;;;;6.63;5.88;;;29.70;59.30;;;;;;7402941;19;19929;-74
2023/09/11 12:50:31;;;;;;;6.63;5.50;;;29.80;58.50;;;;;;7398421;19;19947;-74